Redwood City, CA

2:09 AM PST op 01 februari 2015 (GMT -0800)
San Carlos | Change Station
CLOSE
Current Station
Luchthaven
Location: San Carlos,
Geometrische hoogte: 3 ft
Nabije weerstations

Hoogte 3 ft 37.51 °N, 122.25 °W | Updated 19 minutes ago

Helder
Helder
48 °F
Voelt als 48 °F
N
5
Wind Variabel Wind van WNW

Vandaag
Hoog -- | Laag -- °F
--% Kans op neerslag
Gisteren
Hoog -- | Laag -- °F
Precip. -- inches
7:12 AM 5:33 PM
Wassende maan, 94% visible
Druk 30.08 inches
Zicht 10.0 mijlen
Wolken Helder
Dauwpunt 36 °F
Vochtigheid 62%
Neerslag 0.00 inches
Dikte sneeuw Niet beschikbaar.
UV 0 van de 12
Pollen 5.30 van de 12
Luchtkwaliteit Niet beschikbaar.
Flu Activity Niet beschikbaar.
METAR KSQL 010950Z AUTO 30004KT 10SM CLR 09/02 A3008 RMK AO2

More Conditions Fewer Conditions

Druk 30.08 inches
Zicht 10.0 mijlen
Wolken Helder
Dauwpunt 36 °F
Vochtigheid 62%
Neerslag 0.00 inches
Dikte sneeuw Niet beschikbaar.
UV 0 van de 12
Pollen 5.30 van de 12
Luchtkwaliteit Niet beschikbaar.
Flu Activity Niet beschikbaar.
METAR KSQL 010950Z AUTO 30004KT 10SM CLR 09/02 A3008 RMK AO2

More Conditions Fewer Conditions

10-Day Weather Forecast

Almanac

Astronomie

Feb. 01, 2015 Opkomst Ondergang
Werkelijke tijd
Burgerlijke schemering
Nautische schemering
Astronomische schemering
Maan
Golflengte van het zichtbare licht
Daglengte
Tomorrow will be .
, % of the Moon is Illuminated

Extremen vandaag

State Highs State Lows

Community

WunderPhotos

Upload Photos

1,792,330 foto’s ge-upload!

WunderBlogs® & News

Nearby

Luchtkwaliteit

  Luchtkwaliteit LK-index Verontreinigende stof
Not available.

Dikte sneeuw

Station Depth Geometrische hoogte

Aardbevingen

Stad Distance Mag. Time & Date
Minimum magnitude displayed is 2.5.

Watertemperatuur langs de kust

Plaats Temperatuur

Nabije weerstations